Aeroporto :
LOGIN :

Iscrizione | Disclaimer

   EN    FR    IT 

 










Sommario :    VFR   VFR Marginale   IFR   IFR Intensivo   IFR Molto Intensivo
Visibilità : 
Base nubi : 
>= 8 km
>= 3000ft
5 / 8 km
1000 / 3000 ft
1500m / 5 km
500 / 1000 ft
800 / 1500m
200 / 500 ft
< 800m
< 200 ft
Simboli :   Temporali  Nebbia  Neve Forte  Precipitazioni Forti  Vento > 20 kt
SIGMETs :   Varie  Temporali  Ghiacco  Turbolenza  Onda orograficha  Ceneri Vulcaniche






- Altitudine del aeroporto : 49 ft
- Codice IATA : SEN


EGMC - Southend

ULTIMO METAR :
  • 242320Z 22009KT 9999 FEW025 12/10 Q0995

METARs OBSOLETI :
  • 242250Z 24009KT 9999 FEW011 SCT025 12/10 Q0996
  • 242220Z 24018G28KT 9999 RA FEW011 BKN017 12/10 Q0995
  • 242150Z 21019KT 9999 RA FEW009 SCT015 BKN023 13/12 Q0995
  • 242120Z 21015G25KT 9999 -RA FEW012 SCT015 13/12 Q0995
  • 242050Z 21017G27KT 9999 -RA FEW006 SCT015 13/12 Q0995

TAF TAF EGMC
Valido dal 25 a 00 ore il 25 a 09 ore UTC


242256Z 2500/2509 24020G30KT 9999 SCT020
BECMG 2500/2502 23010KT
TEMPO 2500/2502 7000 RA BKN012
PROB30
TEMPO 2500/2502 4000 +RADZ BKN008
PROB30
TEMPO 2502/2509 23015G25KT 7000 SHRA



MetMap, La meteo Aeronautica in un colpo d'occhio ! - Copyright ORBIFLY Dicembre 2007 - Disclaimer

ORBIFLY MET'MAP TEAM :

Programmazione e sviluppo : Alexandra Zaïnal
Concezione : Baudouin d'Aumeries
Aiuto per la programmazione : Marc-Olivier Méhu
Supporto tecnico e logistico : Manuel Goepfert
Aiuto per la traduzione : Arnaldo La Scala

Contatto : metmap@orbifly.com




FONTI E CREDITI :

   NOAA